Little Giant — AEGJ — position and weather

sailwx.info

Track history (hours):
 
Tides and Currents Weather Stations Pressure Air Temp Water Temp Dewpoint Dewpoint Depression Visibility Wind Speed Wind Dir Waves Ship Positions

Little Giant

Last reported at 2017-Oct-19 17:50 UTC. Time now 2017-Oct-22 10:27 UTC.
Position N 39°32' W 075°47'.

Length 8 m.

Type: Dredging. MMSI: 366999305.

Date/timePositionNaut miles runAvg speedWind from/ knotsBaromVisibWave heightAir tempDewpointWater temp
2017-Oct-19 17:50N 39°32' W 075°47'0 0.3
2017-Oct-19 17:30N 39°32' W 075°47'0 0.4
2017-Oct-19 16:56N 39°32' W 075°48'0 0.4
2017-Oct-19 16:26N 39°32' W 075°47'0 0.2
2017-Oct-19 15:56N 39°32' W 075°47'1 1.3
2017-Oct-19 15:19N 39°32' W 075°48'0 1.0
2017-Oct-19 14:51N 39°32' W 075°48'0 0.6
2017-Oct-19 14:11N 39°32' W 075°48'  
2017-Oct-10 17:08N 39°35' W 075°35'0 0.8
2017-Oct-10 17:00N 39°35' W 075°35'815.9
2017-Oct-10 16:31N 39°42' W 075°31'1 2.8
2017-Oct-10 16:00N 39°43' W 075°32'0 0.1
2017-Oct-10 15:29N 39°43' W 075°32'0 0.6
2017-Oct-10 15:00N 39°43' W 075°31'0 0.4
2017-Oct-10 14:00N 39°43' W 075°31'0 0.5
2017-Oct-10 13:30N 39°43' W 075°31'0 0.7
2017-Oct-10 12:59N 39°43' W 075°31'4 8.6
2017-Oct-10 12:30N 39°39' W 075°34'  
Track history (hours):
 
Tides and Currents Weather Stations Pressure Air Temp Water Temp Dewpoint Dewpoint Depression Visibility Wind Speed Wind Dir Waves Ship Positions

Little Giant

Last reported at 2017-Oct-19 17:50 UTC. Time now 2017-Oct-22 10:27 UTC.
Position N 39°32' W 075°47'.

Length 8 m.

Type: Dredging. MMSI: 366999305.

Date/timePositionNaut miles runAvg speedWind from/ knotsBaromVisibWave heightAir tempDewpointWater temp
2017-Oct-19 17:50N 39°32' W 075°47'0 0.3
2017-Oct-19 17:30N 39°32' W 075°47'0 0.4
2017-Oct-19 16:56N 39°32' W 075°48'0 0.4
2017-Oct-19 16:26N 39°32' W 075°47'0 0.2
2017-Oct-19 15:56N 39°32' W 075°47'1 1.3
2017-Oct-19 15:19N 39°32' W 075°48'0 1.0
2017-Oct-19 14:51N 39°32' W 075°48'0 0.6
2017-Oct-19 14:11N 39°32' W 075°48'  
2017-Oct-10 17:08N 39°35' W 075°35'0 0.8
2017-Oct-10 17:00N 39°35' W 075°35'815.9
2017-Oct-10 16:31N 39°42' W 075°31'1 2.8
2017-Oct-10 16:00N 39°43' W 075°32'0 0.1
2017-Oct-10 15:29N 39°43' W 075°32'0 0.6
2017-Oct-10 15:00N 39°43' W 075°31'0 0.4
2017-Oct-10 14:00N 39°43' W 075°31'0 0.5
2017-Oct-10 13:30N 39°43' W 075°31'0 0.7
2017-Oct-10 12:59N 39°43' W 075°31'4 8.6
2017-Oct-10 12:30N 39°39' W 075°34'  

Dump ship's entire track history